sensor_id;sensor_type;location;lat;lon;timestamp;temperature;humidity
43151;DHT22;28755;51.478;5.702;2022-07-23T00:02:17;17.90;99.90
43151;DHT22;28755;51.478;5.702;2022-07-23T00:04:43;17.90;99.90
43151;DHT22;28755;51.478;5.702;2022-07-23T00:07:08;17.90;99.90
43151;DHT22;28755;51.478;5.702;2022-07-23T00:09:34;17.80;99.90
43151;DHT22;28755;51.478;5.702;2022-07-23T00:11:59;17.90;99.90
43151;DHT22;28755;51.478;5.702;2022-07-23T00:14:25;17.80;99.90
43151;DHT22;28755;51.478;5.702;2022-07-23T00:16:51;17.70;99.90
43151;DHT22;28755;51.478;5.702;2022-07-23T00:19:16;17.70;99.90
43151;DHT22;28755;51.478;5.702;2022-07-23T00:21:42;17.70;99.90
43151;DHT22;28755;51.478;5.702;2022-07-23T00:24:07;17.60;99.90
43151;DHT22;28755;51.478;5.702;2022-07-23T00:26:33;17.50;99.90
43151;DHT22;28755;51.478;5.702;2022-07-23T00:28:59;17.50;99.90
43151;DHT22;28755;51.478;5.702;2022-07-23T00:31:24;17.50;99.90
43151;DHT22;28755;51.478;5.702;2022-07-23T00:33:50;17.50;99.90
43151;DHT22;28755;51.478;5.702;2022-07-23T00:36:16;17.40;99.90
43151;DHT22;28755;51.478;5.702;2022-07-23T00:38:41;17.40;99.90
43151;DHT22;28755;51.478;5.702;2022-07-23T00:41:07;17.40;99.90
43151;DHT22;28755;51.478;5.702;2022-07-23T00:43:33;17.50;99.90
43151;DHT22;28755;51.478;5.702;2022-07-23T00:45:58;17.30;99.90
43151;DHT22;28755;51.478;5.702;2022-07-23T00:48:24;17.30;99.90
43151;DHT22;28755;51.478;5.702;2022-07-23T00:50:49;17.30;99.90
43151;DHT22;28755;51.478;5.702;2022-07-23T00:53:15;17.30;99.90
43151;DHT22;28755;51.478;5.702;2022-07-23T00:55:41;17.20;99.90
43151;DHT22;28755;51.478;5.702;2022-07-23T00:58:09;17.20;99.90
43151;DHT22;28755;51.478;5.702;2022-07-23T01:00:35;17.20;99.90
43151;DHT22;28755;51.478;5.702;2022-07-23T01:03:00;17.10;99.90
43151;DHT22;28755;51.478;5.702;2022-07-23T01:05:26;17.10;99.90
43151;DHT22;28755;51.478;5.702;2022-07-23T01:07:52;17.10;99.90
43151;DHT22;28755;51.478;5.702;2022-07-23T01:10:18;17.10;99.90
43151;DHT22;28755;51.478;5.702;2022-07-23T01:13:03;17.10;99.90
43151;DHT22;28755;51.478;5.702;2022-07-23T01:15:30;17.00;99.90
43151;DHT22;28755;51.478;5.702;2022-07-23T01:17:56;16.90;99.90
43151;DHT22;28755;51.478;5.702;2022-07-23T01:20:22;16.90;99.90
43151;DHT22;28755;51.478;5.702;2022-07-23T01:22:48;16.90;99.90
43151;DHT22;28755;51.478;5.702;2022-07-23T01:25:14;16.80;99.90
43151;DHT22;28755;51.478;5.702;2022-07-23T01:27:40;16.70;99.90
43151;DHT22;28755;51.478;5.702;2022-07-23T01:30:06;16.70;99.90
43151;DHT22;28755;51.478;5.702;2022-07-23T01:32:32;16.70;99.90
43151;DHT22;28755;51.478;5.702;2022-07-23T01:34:57;16.70;99.90
43151;DHT22;28755;51.478;5.702;2022-07-23T01:37:23;16.70;99.90
43151;DHT22;28755;51.478;5.702;2022-07-23T01:39:48;16.70;99.90
43151;DHT22;28755;51.478;5.702;2022-07-23T01:42:14;16.70;99.90
43151;DHT22;28755;51.478;5.702;2022-07-23T01:44:40;16.60;99.90
43151;DHT22;28755;51.478;5.702;2022-07-23T01:47:05;16.60;99.90
43151;DHT22;28755;51.478;5.702;2022-07-23T01:49:31;16.60;99.90
43151;DHT22;28755;51.478;5.702;2022-07-23T01:51:56;16.50;99.90
43151;DHT22;28755;51.478;5.702;2022-07-23T01:54:29;16.60;99.90
43151;DHT22;28755;51.478;5.702;2022-07-23T01:56:56;16.50;99.90
43151;DHT22;28755;51.478;5.702;2022-07-23T01:59:22;16.50;99.90
43151;DHT22;28755;51.478;5.702;2022-07-23T02:01:48;16.50;99.90
43151;DHT22;28755;51.478;5.702;2022-07-23T02:04:16;16.60;99.90
43151;DHT22;28755;51.478;5.702;2022-07-23T02:06:42;16.40;99.90
43151;DHT22;28755;51.478;5.702;2022-07-23T02:09:08;16.40;99.90
43151;DHT22;28755;51.478;5.702;2022-07-23T02:11:34;16.40;99.90
43151;DHT22;28755;51.478;5.702;2022-07-23T02:13:59;16.40;99.90
43151;DHT22;28755;51.478;5.702;2022-07-23T02:16:25;16.30;99.90
43151;DHT22;28755;51.478;5.702;2022-07-23T02:18:50;16.30;99.90
43151;DHT22;28755;51.478;5.702;2022-07-23T02:21:16;16.30;99.90
43151;DHT22;28755;51.478;5.702;2022-07-23T02:23:42;16.20;99.90
43151;DHT22;28755;51.478;5.702;2022-07-23T02:26:08;16.30;99.90
43151;DHT22;28755;51.478;5.702;2022-07-23T02:28:33;16.30;99.90
43151;DHT22;28755;51.478;5.702;2022-07-23T02:30:59;16.20;99.90
43151;DHT22;28755;51.478;5.702;2022-07-23T02:33:25;16.20;99.90
43151;DHT22;28755;51.478;5.702;2022-07-23T02:35:50;16.20;99.90
43151;DHT22;28755;51.478;5.702;2022-07-23T02:38:16;16.10;99.90
43151;DHT22;28755;51.478;5.702;2022-07-23T02:40:42;16.10;99.90
43151;DHT22;28755;51.478;5.702;2022-07-23T02:43:07;16.10;99.90
43151;DHT22;28755;51.478;5.702;2022-07-23T02:45:33;16.10;99.90
43151;DHT22;28755;51.478;5.702;2022-07-23T02:47:59;16.00;99.90
43151;DHT22;28755;51.478;5.702;2022-07-23T02:50:24;16.00;99.90
43151;DHT22;28755;51.478;5.702;2022-07-23T02:52:50;16.00;99.90
43151;DHT22;28755;51.478;5.702;2022-07-23T02:55:16;16.00;99.90
43151;DHT22;28755;51.478;5.702;2022-07-23T02:57:41;16.00;99.90
43151;DHT22;28755;51.478;5.702;2022-07-23T03:00:08;16.00;99.90
43151;DHT22;28755;51.478;5.702;2022-07-23T03:02:34;15.90;99.90
43151;DHT22;28755;51.478;5.702;2022-07-23T03:05:00;15.90;99.90
43151;DHT22;28755;51.478;5.702;2022-07-23T03:07:25;15.90;99.90
43151;DHT22;28755;51.478;5.702;2022-07-23T03:09:51;15.80;99.90
43151;DHT22;28755;51.478;5.702;2022-07-23T03:12:17;15.80;99.90
43151;DHT22;28755;51.478;5.702;2022-07-23T03:14:42;15.80;99.90
43151;DHT22;28755;51.478;5.702;2022-07-23T03:17:09;15.70;99.90
43151;DHT22;28755;51.478;5.702;2022-07-23T03:19:35;15.70;99.90
43151;DHT22;28755;51.478;5.702;2022-07-23T03:22:02;15.70;99.90
43151;DHT22;28755;51.478;5.702;2022-07-23T03:24:27;15.70;99.90
43151;DHT22;28755;51.478;5.702;2022-07-23T03:27:12;15.60;99.90
43151;DHT22;28755;51.478;5.702;2022-07-23T03:29:38;15.60;99.90
43151;DHT22;28755;51.478;5.702;2022-07-23T03:32:04;15.60;99.90
43151;DHT22;28755;51.478;5.702;2022-07-23T03:34:30;15.60;99.90
43151;DHT22;28755;51.478;5.702;2022-07-23T03:36:55;15.60;99.90
43151;DHT22;28755;51.478;5.702;2022-07-23T03:39:21;15.60;99.90
43151;DHT22;28755;51.478;5.702;2022-07-23T03:41:47;15.50;99.90
43151;DHT22;28755;51.478;5.702;2022-07-23T03:44:12;15.50;99.90
43151;DHT22;28755;51.478;5.702;2022-07-23T03:46:38;15.40;99.90
43151;DHT22;28755;51.478;5.702;2022-07-23T03:49:04;15.50;99.90
43151;DHT22;28755;51.478;5.702;2022-07-23T03:51:29;15.50;99.90
43151;DHT22;28755;51.478;5.702;2022-07-23T03:53:55;15.50;99.90
43151;DHT22;28755;51.478;5.702;2022-07-23T03:56:21;15.50;99.90
43151;DHT22;28755;51.478;5.702;2022-07-23T03:58:47;15.40;99.90
43151;DHT22;28755;51.478;5.702;2022-07-23T04:01:13;15.40;99.90
43151;DHT22;28755;51.478;5.702;2022-07-23T04:03:38;15.40;99.90
43151;DHT22;28755;51.478;5.702;2022-07-23T04:06:05;15.30;99.90
43151;DHT22;28755;51.478;5.702;2022-07-23T04:08:31;15.40;99.90
43151;DHT22;28755;51.478;5.702;2022-07-23T04:10:56;15.30;99.90
43151;DHT22;28755;51.478;5.702;2022-07-23T04:13:22;15.40;99.90
43151;DHT22;28755;51.478;5.702;2022-07-23T04:15:48;15.40;99.90
43151;DHT22;28755;51.478;5.702;2022-07-23T04:18:14;15.30;99.90
43151;DHT22;28755;51.478;5.702;2022-07-23T04:20:43;15.40;99.90
43151;DHT22;28755;51.478;5.702;2022-07-23T04:23:08;15.40;99.90
43151;DHT22;28755;51.478;5.702;2022-07-23T04:25:35;15.50;99.90
43151;DHT22;28755;51.478;5.702;2022-07-23T04:28:00;15.50;99.90
43151;DHT22;28755;51.478;5.702;2022-07-23T04:30:26;15.50;99.90
43151;DHT22;28755;51.478;5.702;2022-07-23T04:32:52;15.50;99.90
43151;DHT22;28755;51.478;5.702;2022-07-23T04:35:18;15.60;99.90
43151;DHT22;28755;51.478;5.702;2022-07-23T04:37:44;15.50;99.90
43151;DHT22;28755;51.478;5.702;2022-07-23T04:40:10;15.50;99.90
43151;DHT22;28755;51.478;5.702;2022-07-23T04:42:39;15.60;99.90
43151;DHT22;28755;51.478;5.702;2022-07-23T04:45:05;15.60;99.90
43151;DHT22;28755;51.478;5.702;2022-07-23T04:47:31;15.60;99.90
43151;DHT22;28755;51.478;5.702;2022-07-23T04:49:57;15.70;99.90
43151;DHT22;28755;51.478;5.702;2022-07-23T04:52:23;15.90;99.90
43151;DHT22;28755;51.478;5.702;2022-07-23T04:54:49;15.80;99.90
43151;DHT22;28755;51.478;5.702;2022-07-23T04:57:15;15.90;99.90
43151;DHT22;28755;51.478;5.702;2022-07-23T04:59:41;16.10;99.90
43151;DHT22;28755;51.478;5.702;2022-07-23T05:02:06;16.10;99.90
43151;DHT22;28755;51.478;5.702;2022-07-23T05:04:32;16.10;99.90
43151;DHT22;28755;51.478;5.702;2022-07-23T05:06:58;16.20;99.90
43151;DHT22;28755;51.478;5.702;2022-07-23T05:09:24;16.30;99.90
43151;DHT22;28755;51.478;5.702;2022-07-23T05:11:50;16.40;99.90
43151;DHT22;28755;51.478;5.702;2022-07-23T05:14:16;16.40;99.90
43151;DHT22;28755;51.478;5.702;2022-07-23T05:16:41;16.50;99.90
43151;DHT22;28755;51.478;5.702;2022-07-23T05:19:07;16.60;99.90
43151;DHT22;28755;51.478;5.702;2022-07-23T05:21:33;16.70;99.90
43151;DHT22;28755;51.478;5.702;2022-07-23T05:23:58;16.80;99.90
43151;DHT22;28755;51.478;5.702;2022-07-23T05:26:24;16.70;99.90
43151;DHT22;28755;51.478;5.702;2022-07-23T05:28:50;16.80;99.90
43151;DHT22;28755;51.478;5.702;2022-07-23T05:31:16;16.80;99.90
43151;DHT22;28755;51.478;5.702;2022-07-23T05:33:42;16.90;99.90
43151;DHT22;28755;51.478;5.702;2022-07-23T05:36:11;16.90;99.90
43151;DHT22;28755;51.478;5.702;2022-07-23T05:38:36;17.00;99.90
43151;DHT22;28755;51.478;5.702;2022-07-23T05:41:02;17.10;99.90
43151;DHT22;28755;51.478;5.702;2022-07-23T05:43:28;17.10;99.90
43151;DHT22;28755;51.478;5.702;2022-07-23T05:45:54;17.20;99.90
43151;DHT22;28755;51.478;5.702;2022-07-23T05:48:20;17.40;99.90
43151;DHT22;28755;51.478;5.702;2022-07-23T05:50:46;17.50;99.90
43151;DHT22;28755;51.478;5.702;2022-07-23T05:53:12;17.60;99.90
43151;DHT22;28755;51.478;5.702;2022-07-23T05:55:38;17.80;99.90
43151;DHT22;28755;51.478;5.702;2022-07-23T05:58:04;17.90;99.90
43151;DHT22;28755;51.478;5.702;2022-07-23T06:00:30;18.10;99.90
43151;DHT22;28755;51.478;5.702;2022-07-23T06:02:55;18.20;99.90
43151;DHT22;28755;51.478;5.702;2022-07-23T06:05:21;18.30;99.90
43151;DHT22;28755;51.478;5.702;2022-07-23T06:07:47;18.40;99.90
43151;DHT22;28755;51.478;5.702;2022-07-23T06:10:12;18.50;99.90
43151;DHT22;28755;51.478;5.702;2022-07-23T06:12:38;18.60;99.90
43151;DHT22;28755;51.478;5.702;2022-07-23T06:15:04;18.70;99.90
43151;DHT22;28755;51.478;5.702;2022-07-23T06:17:30;18.70;99.90
43151;DHT22;28755;51.478;5.702;2022-07-23T06:19:56;18.70;99.90
43151;DHT22;28755;51.478;5.702;2022-07-23T06:22:22;18.80;99.90
43151;DHT22;28755;51.478;5.702;2022-07-23T06:24:49;18.90;99.90
43151;DHT22;28755;51.478;5.702;2022-07-23T06:27:14;19.00;99.90
43151;DHT22;28755;51.478;5.702;2022-07-23T06:29:40;19.20;99.90
43151;DHT22;28755;51.478;5.702;2022-07-23T06:32:07;19.20;99.90
43151;DHT22;28755;51.478;5.702;2022-07-23T06:34:33;19.40;99.90
43151;DHT22;28755;51.478;5.702;2022-07-23T06:36:59;19.50;99.90
43151;DHT22;28755;51.478;5.702;2022-07-23T06:39:25;19.70;99.90
43151;DHT22;28755;51.478;5.702;2022-07-23T06:41:50;19.70;99.90
43151;DHT22;28755;51.478;5.702;2022-07-23T06:44:16;19.80;99.90
43151;DHT22;28755;51.478;5.702;2022-07-23T06:46:42;19.90;99.90
43151;DHT22;28755;51.478;5.702;2022-07-23T06:49:08;20.00;99.90
43151;DHT22;28755;51.478;5.702;2022-07-23T06:51:34;20.30;99.90
43151;DHT22;28755;51.478;5.702;2022-07-23T06:54:00;20.40;99.90
43151;DHT22;28755;51.478;5.702;2022-07-23T06:56:25;20.40;99.90
43151;DHT22;28755;51.478;5.702;2022-07-23T06:58:51;20.40;99.90
43151;DHT22;28755;51.478;5.702;2022-07-23T07:01:17;20.40;99.90
43151;DHT22;28755;51.478;5.702;2022-07-23T07:03:43;20.60;99.90
43151;DHT22;28755;51.478;5.702;2022-07-23T07:06:09;20.90;99.90
43151;DHT22;28755;51.478;5.702;2022-07-23T07:08:35;20.80;99.90
43151;DHT22;28755;51.478;5.702;2022-07-23T07:11:00;20.90;99.90
43151;DHT22;28755;51.478;5.702;2022-07-23T07:13:26;21.00;99.90
43151;DHT22;28755;51.478;5.702;2022-07-23T07:15:52;21.40;99.90
43151;DHT22;28755;51.478;5.702;2022-07-23T07:18:17;21.60;99.90
43151;DHT22;28755;51.478;5.702;2022-07-23T07:20:43;21.70;99.90
43151;DHT22;28755;51.478;5.702;2022-07-23T07:23:08;21.70;99.90
43151;DHT22;28755;51.478;5.702;2022-07-23T07:25:34;21.80;99.90
43151;DHT22;28755;51.478;5.702;2022-07-23T07:28:00;21.80;99.90
43151;DHT22;28755;51.478;5.702;2022-07-23T07:30:25;22.00;99.90
43151;DHT22;28755;51.478;5.702;2022-07-23T07:32:54;22.20;99.90
43151;DHT22;28755;51.478;5.702;2022-07-23T07:35:19;22.40;99.90
43151;DHT22;28755;51.478;5.702;2022-07-23T07:37:45;22.60;99.90
43151;DHT22;28755;51.478;5.702;2022-07-23T07:40:10;22.70;99.90
43151;DHT22;28755;51.478;5.702;2022-07-23T07:42:48;22.90;99.90
43151;DHT22;28755;51.478;5.702;2022-07-23T07:45:13;22.90;99.90
43151;DHT22;28755;51.478;5.702;2022-07-23T07:47:40;22.70;99.90
43151;DHT22;28755;51.478;5.702;2022-07-23T07:50:06;22.80;99.90
43151;DHT22;28755;51.478;5.702;2022-07-23T07:52:33;22.80;99.90
43151;DHT22;28755;51.478;5.702;2022-07-23T07:54:59;23.10;99.90
43151;DHT22;28755;51.478;5.702;2022-07-23T07:57:24;23.50;99.90
43151;DHT22;28755;51.478;5.702;2022-07-23T07:59:50;23.00;99.90
43151;DHT22;28755;51.478;5.702;2022-07-23T08:02:15;23.00;99.90
43151;DHT22;28755;51.478;5.702;2022-07-23T08:04:41;23.50;99.90
43151;DHT22;28755;51.478;5.702;2022-07-23T08:07:07;24.10;99.90
43151;DHT22;28755;51.478;5.702;2022-07-23T08:09:32;24.60;99.90
43151;DHT22;28755;51.478;5.702;2022-07-23T08:11:58;24.30;99.90
43151;DHT22;28755;51.478;5.702;2022-07-23T08:14:23;23.90;99.90
43151;DHT22;28755;51.478;5.702;2022-07-23T08:16:49;23.70;99.90
43151;DHT22;28755;51.478;5.702;2022-07-23T08:19:15;23.70;99.90
43151;DHT22;28755;51.478;5.702;2022-07-23T08:21:40;23.80;99.90
43151;DHT22;28755;51.478;5.702;2022-07-23T08:24:06;24.30;99.90
43151;DHT22;28755;51.478;5.702;2022-07-23T08:26:32;24.70;99.90
43151;DHT22;28755;51.478;5.702;2022-07-23T08:28:57;25.10;99.90
43151;DHT22;28755;51.478;5.702;2022-07-23T08:31:23;25.40;99.90
43151;DHT22;28755;51.478;5.702;2022-07-23T08:33:48;25.30;99.90
43151;DHT22;28755;51.478;5.702;2022-07-23T08:36:14;25.50;99.90
43151;DHT22;28755;51.478;5.702;2022-07-23T08:38:40;26.10;99.90
43151;DHT22;28755;51.478;5.702;2022-07-23T08:41:07;26.60;99.90
43151;DHT22;28755;51.478;5.702;2022-07-23T08:43:33;26.80;99.90
43151;DHT22;28755;51.478;5.702;2022-07-23T08:46:01;27.00;99.90
43151;DHT22;28755;51.478;5.702;2022-07-23T08:48:30;26.90;99.90
43151;DHT22;28755;51.478;5.702;2022-07-23T08:50:57;26.70;99.90
43151;DHT22;28755;51.478;5.702;2022-07-23T08:53:25;27.00;99.90
43151;DHT22;28755;51.478;5.702;2022-07-23T08:55:52;26.30;99.90
43151;DHT22;28755;51.478;5.702;2022-07-23T08:58:19;26.30;99.90
43151;DHT22;28755;51.478;5.702;2022-07-23T09:00:46;26.90;99.90
43151;DHT22;28755;51.478;5.702;2022-07-23T09:03:19;27.10;99.90
43151;DHT22;28755;51.478;5.702;2022-07-23T09:05:45;27.30;99.90
43151;DHT22;28755;51.478;5.702;2022-07-23T09:08:18;27.00;99.90
43151;DHT22;28755;51.478;5.702;2022-07-23T09:13:37;27.70;99.90
43151;DHT22;28755;51.478;5.702;2022-07-23T09:18:38;27.50;99.80
43151;DHT22;28755;51.478;5.702;2022-07-23T09:21:09;27.70;99.30
43151;DHT22;28755;51.478;5.702;2022-07-23T09:23:46;28.10;99.00
43151;DHT22;28755;51.478;5.702;2022-07-23T09:26:25;28.30;99.00
43151;DHT22;28755;51.478;5.702;2022-07-23T09:29:00;27.80;98.00
43151;DHT22;28755;51.478;5.702;2022-07-23T09:31:35;27.90;98.40
43151;DHT22;28755;51.478;5.702;2022-07-23T09:34:10;27.50;98.60
43151;DHT22;28755;51.478;5.702;2022-07-23T09:36:35;28.10;99.20
43151;DHT22;28755;51.478;5.702;2022-07-23T09:39:02;28.60;98.60
43151;DHT22;28755;51.478;5.702;2022-07-23T09:41:35;28.40;98.40
43151;DHT22;28755;51.478;5.702;2022-07-23T09:44:09;28.70;98.30
43151;DHT22;28755;51.478;5.702;2022-07-23T09:46:35;29.40;97.70
43151;DHT22;28755;51.478;5.702;2022-07-23T09:49:12;29.00;97.60
43151;DHT22;28755;51.478;5.702;2022-07-23T09:51:53;28.90;98.40
43151;DHT22;28755;51.478;5.702;2022-07-23T09:54:28;29.20;98.10
43151;DHT22;28755;51.478;5.702;2022-07-23T09:56:56;29.20;96.90
43151;DHT22;28755;51.478;5.702;2022-07-23T09:59:30;29.40;97.10
43151;DHT22;28755;51.478;5.702;2022-07-23T10:01:57;29.90;96.30
43151;DHT22;28755;51.478;5.702;2022-07-23T10:04:27;29.80;95.60
43151;DHT22;28755;51.478;5.702;2022-07-23T10:06:58;30.50;95.40
43151;DHT22;28755;51.478;5.702;2022-07-23T10:09:29;31.40;95.30
43151;DHT22;28755;51.478;5.702;2022-07-23T10:11:57;32.10;94.50
43151;DHT22;28755;51.478;5.702;2022-07-23T10:14:44;31.40;93.50
43151;DHT22;28755;51.478;5.702;2022-07-23T10:17:10;31.00;93.50
43151;DHT22;28755;51.478;5.702;2022-07-23T10:19:36;31.60;93.00
43151;DHT22;28755;51.478;5.702;2022-07-23T10:22:06;32.10;92.90
43151;DHT22;28755;51.478;5.702;2022-07-23T10:27:48;32.10;93.20
43151;DHT22;28755;51.478;5.702;2022-07-23T10:30:47;32.40;92.70
43151;DHT22;28755;51.478;5.702;2022-07-23T10:36:17;33.50;91.20
43151;DHT22;28755;51.478;5.702;2022-07-23T10:41:51;33.90;90.50
43151;DHT22;28755;51.478;5.702;2022-07-23T10:44:18;34.40;89.40
43151;DHT22;28755;51.478;5.702;2022-07-23T10:47:03;33.50;88.10
43151;DHT22;28755;51.478;5.702;2022-07-23T10:50:20;34.00;87.40
43151;DHT22;28755;51.478;5.702;2022-07-23T10:57:58;36.50;83.20
43151;DHT22;28755;51.478;5.702;2022-07-23T11:00:27;37.40;82.90
43151;DHT22;28755;51.478;5.702;2022-07-23T11:03:02;38.00;81.00
43151;DHT22;28755;51.478;5.702;2022-07-23T11:05:45;38.20;81.00
43151;DHT22;28755;51.478;5.702;2022-07-23T11:08:17;37.30;79.50
43151;DHT22;28755;51.478;5.702;2022-07-23T11:10:48;37.20;80.90
43151;DHT22;28755;51.478;5.702;2022-07-23T11:24:14;36.70;78.80
43151;DHT22;28755;51.478;5.702;2022-07-23T11:32:00;37.60;77.70
43151;DHT22;28755;51.478;5.702;2022-07-23T11:34:39;37.50;77.00
43151;DHT22;28755;51.478;5.702;2022-07-23T11:37:07;37.60;77.60
43151;DHT22;28755;51.478;5.702;2022-07-23T11:39:34;37.50;77.60
43151;DHT22;28755;51.478;5.702;2022-07-23T11:42:02;37.80;77.30
43151;DHT22;28755;51.478;5.702;2022-07-23T11:44:32;37.90;76.10
43151;DHT22;28755;51.478;5.702;2022-07-23T11:47:00;37.60;76.40
43151;DHT22;28755;51.478;5.702;2022-07-23T11:49:27;37.90;75.60
43151;DHT22;28755;51.478;5.702;2022-07-23T11:52:10;38.30;76.80
43151;DHT22;28755;51.478;5.702;2022-07-23T11:54:56;36.50;76.10
43151;DHT22;28755;51.478;5.702;2022-07-23T11:57:31;35.90;78.10
43151;DHT22;28755;51.478;5.702;2022-07-23T12:00:18;34.70;79.10
43151;DHT22;28755;51.478;5.702;2022-07-23T12:02:47;33.30;80.30
43151;DHT22;28755;51.478;5.702;2022-07-23T12:05:18;32.20;81.40
43151;DHT22;28755;51.478;5.702;2022-07-23T12:07:45;31.10;83.00
43151;DHT22;28755;51.478;5.702;2022-07-23T12:10:20;30.20;82.90
43151;DHT22;28755;51.478;5.702;2022-07-23T12:13:00;30.00;84.20
43151;DHT22;28755;51.478;5.702;2022-07-23T12:15:29;29.60;83.90
43151;DHT22;28755;51.478;5.702;2022-07-23T12:17:58;29.00;85.00
43151;DHT22;28755;51.478;5.702;2022-07-23T12:20:27;28.70;85.20
43151;DHT22;28755;51.478;5.702;2022-07-23T12:22:56;28.70;85.30
43151;DHT22;28755;51.478;5.702;2022-07-23T12:25:25;29.00;85.40
43151;DHT22;28755;51.478;5.702;2022-07-23T12:28:14;29.20;85.70
43151;DHT22;28755;51.478;5.702;2022-07-23T12:33:14;28.20;85.60
43151;DHT22;28755;51.478;5.702;2022-07-23T12:35:45;27.90;85.20
43151;DHT22;28755;51.478;5.702;2022-07-23T12:38:17;27.40;86.00
43151;DHT22;28755;51.478;5.702;2022-07-23T12:40:48;27.40;87.00
43151;DHT22;28755;51.478;5.702;2022-07-23T12:43:23;27.40;87.40
43151;DHT22;28755;51.478;5.702;2022-07-23T12:45:52;27.30;87.10
43151;DHT22;28755;51.478;5.702;2022-07-23T12:48:26;27.40;88.70
43151;DHT22;28755;51.478;5.702;2022-07-23T12:50:57;27.50;88.90
43151;DHT22;28755;51.478;5.702;2022-07-23T12:53:31;27.50;88.30
43151;DHT22;28755;51.478;5.702;2022-07-23T13:04:02;27.30;88.60
43151;DHT22;28755;51.478;5.702;2022-07-23T13:06:30;27.10;87.60
43151;DHT22;28755;51.478;5.702;2022-07-23T13:08:56;26.80;88.20
43151;DHT22;28755;51.478;5.702;2022-07-23T13:11:22;27.00;89.10
43151;DHT22;28755;51.478;5.702;2022-07-23T13:13:49;27.30;88.10
43151;DHT22;28755;51.478;5.702;2022-07-23T13:16:15;27.30;88.20
43151;DHT22;28755;51.478;5.702;2022-07-23T13:18:41;27.00;89.20
43151;DHT22;28755;51.478;5.702;2022-07-23T13:21:07;27.00;88.60
43151;DHT22;28755;51.478;5.702;2022-07-23T13:23:33;27.00;89.10
43151;DHT22;28755;51.478;5.702;2022-07-23T13:25:59;26.80;88.60
43151;DHT22;28755;51.478;5.702;2022-07-23T13:28:25;26.70;88.50
43151;DHT22;28755;51.478;5.702;2022-07-23T13:30:51;27.00;89.20
43151;DHT22;28755;51.478;5.702;2022-07-23T13:33:19;27.60;88.90
43151;DHT22;28755;51.478;5.702;2022-07-23T13:35:44;28.30;88.00
43151;DHT22;28755;51.478;5.702;2022-07-23T13:38:11;28.50;88.30
43151;DHT22;28755;51.478;5.702;2022-07-23T13:40:39;27.80;87.80
43151;DHT22;28755;51.478;5.702;2022-07-23T13:43:06;27.20;88.90
43151;DHT22;28755;51.478;5.702;2022-07-23T13:45:33;26.80;90.00
43151;DHT22;28755;51.478;5.702;2022-07-23T13:47:59;27.10;90.20
43151;DHT22;28755;51.478;5.702;2022-07-23T13:50:25;27.40;90.10
43151;DHT22;28755;51.478;5.702;2022-07-23T13:52:51;27.70;90.10
43151;DHT22;28755;51.478;5.702;2022-07-23T13:55:17;27.90;90.00
43151;DHT22;28755;51.478;5.702;2022-07-23T13:57:42;27.30;88.70
43151;DHT22;28755;51.478;5.702;2022-07-23T14:00:09;26.70;90.10
43151;DHT22;28755;51.478;5.702;2022-07-23T14:02:37;27.00;90.50
43151;DHT22;28755;51.478;5.702;2022-07-23T14:05:05;27.50;90.40
43151;DHT22;28755;51.478;5.702;2022-07-23T14:07:32;27.50;89.30
43151;DHT22;28755;51.478;5.702;2022-07-23T14:09:58;27.40;90.10
43151;DHT22;28755;51.478;5.702;2022-07-23T14:12:24;27.30;90.00
43151;DHT22;28755;51.478;5.702;2022-07-23T14:14:50;27.20;89.90
43151;DHT22;28755;51.478;5.702;2022-07-23T14:17:15;26.80;90.40
43151;DHT22;28755;51.478;5.702;2022-07-23T14:19:41;27.00;90.90
43151;DHT22;28755;51.478;5.702;2022-07-23T14:22:07;27.00;90.50
43151;DHT22;28755;51.478;5.702;2022-07-23T14:24:32;27.00;90.40
43151;DHT22;28755;51.478;5.702;2022-07-23T14:27:00;27.00;90.40
43151;DHT22;28755;51.478;5.702;2022-07-23T14:29:26;26.90;90.50
43151;DHT22;28755;51.478;5.702;2022-07-23T14:31:51;26.70;90.10
43151;DHT22;28755;51.478;5.702;2022-07-23T14:34:17;26.50;90.60
43151;DHT22;28755;51.478;5.702;2022-07-23T14:36:43;26.80;90.90
43151;DHT22;28755;51.478;5.702;2022-07-23T14:39:09;26.70;91.20
43151;DHT22;28755;51.478;5.702;2022-07-23T14:41:35;26.70;91.20
43151;DHT22;28755;51.478;5.702;2022-07-23T14:44:02;27.00;91.20
43151;DHT22;28755;51.478;5.702;2022-07-23T14:46:28;27.20;90.60
43151;DHT22;28755;51.478;5.702;2022-07-23T14:48:53;27.20;90.60
43151;DHT22;28755;51.478;5.702;2022-07-23T14:51:19;27.80;90.30
43151;DHT22;28755;51.478;5.702;2022-07-23T14:53:45;28.40;90.20
43151;DHT22;28755;51.478;5.702;2022-07-23T14:56:10;28.60;90.00
43151;DHT22;28755;51.478;5.702;2022-07-23T14:58:36;28.80;88.90
43151;DHT22;28755;51.478;5.702;2022-07-23T15:01:02;28.60;88.40
43151;DHT22;28755;51.478;5.702;2022-07-23T15:03:28;28.40;88.80
43151;DHT22;28755;51.478;5.702;2022-07-23T15:05:53;28.30;89.80
43151;DHT22;28755;51.478;5.702;2022-07-23T15:08:19;28.50;90.00
43151;DHT22;28755;51.478;5.702;2022-07-23T15:10:45;28.00;90.00
43151;DHT22;28755;51.478;5.702;2022-07-23T15:13:10;27.70;90.20
43151;DHT22;28755;51.478;5.702;2022-07-23T15:15:36;27.60;90.40
43151;DHT22;28755;51.478;5.702;2022-07-23T15:18:01;27.40;90.70
43151;DHT22;28755;51.478;5.702;2022-07-23T15:20:27;27.60;91.00
43151;DHT22;28755;51.478;5.702;2022-07-23T15:22:53;27.60;90.60
43151;DHT22;28755;51.478;5.702;2022-07-23T15:25:19;27.70;91.00
43151;DHT22;28755;51.478;5.702;2022-07-23T15:27:44;28.00;91.00
43151;DHT22;28755;51.478;5.702;2022-07-23T15:30:10;28.10;90.80
43151;DHT22;28755;51.478;5.702;2022-07-23T15:32:36;28.20;90.40
43151;DHT22;28755;51.478;5.702;2022-07-23T15:35:03;28.30;90.20
43151;DHT22;28755;51.478;5.702;2022-07-23T15:37:30;28.30;90.30
43151;DHT22;28755;51.478;5.702;2022-07-23T15:39:56;28.20;90.30
43151;DHT22;28755;51.478;5.702;2022-07-23T15:42:21;28.20;90.10
43151;DHT22;28755;51.478;5.702;2022-07-23T15:44:47;28.20;90.20
43151;DHT22;28755;51.478;5.702;2022-07-23T15:47:17;28.00;90.50
43151;DHT22;28755;51.478;5.702;2022-07-23T15:49:45;28.00;90.70
43151;DHT22;28755;51.478;5.702;2022-07-23T15:52:10;27.90;90.70
43151;DHT22;28755;51.478;5.702;2022-07-23T15:54:37;28.10;90.60
43151;DHT22;28755;51.478;5.702;2022-07-23T15:57:04;28.30;90.40
43151;DHT22;28755;51.478;5.702;2022-07-23T15:59:30;28.30;90.30
43151;DHT22;28755;51.478;5.702;2022-07-23T16:01:56;28.20;90.30
43151;DHT22;28755;51.478;5.702;2022-07-23T16:04:22;27.90;90.30
43151;DHT22;28755;51.478;5.702;2022-07-23T16:06:47;27.70;90.90
43151;DHT22;28755;51.478;5.702;2022-07-23T16:09:13;27.50;90.70
43151;DHT22;28755;51.478;5.702;2022-07-23T16:11:40;27.30;91.30
43151;DHT22;28755;51.478;5.702;2022-07-23T16:14:05;27.50;91.40
43151;DHT22;28755;51.478;5.702;2022-07-23T16:16:31;27.50;91.30
43151;DHT22;28755;51.478;5.702;2022-07-23T16:18:57;27.50;91.40